Time;durP1;ratioP1;P1;durP2;ratioP2;P2;SDS_P1;SDS_P2;PMS_P1;PMS_P2;Temp;Humidity;BMP_temperature;BMP_pressure;BME280_temperature;BME280_humidity;BME280_pressure;Samples;Min_cycle;Max_cycle;Signal;HPM_P1;HPM_P2
2023/08/24 00:01:30;;;;;;;4.85;2.80;;;33.70;35.70;;;;;;7681376;23;20062;-75
2023/08/24 00:04:31;;;;;;;6.22;2.10;;;33.60;35.80;;;;;;7656288;23;20472;-76
2023/08/24 00:07:33;;;;;;;7.55;2.35;;;33.60;36.00;;;;;;7707829;23;20004;-75
2023/08/24 00:10:35;;;;;;;4.90;2.60;;;33.50;36.10;;;;;;7681396;23;20385;-75
2023/08/24 00:13:36;;;;;;;4.07;2.78;;;33.50;36.00;;;;;;7681141;23;20015;-75
2023/08/24 00:16:38;;;;;;;6.22;2.70;;;33.50;36.10;;;;;;7707992;23;20005;-75
2023/08/24 00:19:39;;;;;;;6.78;2.65;;;33.50;36.10;;;;;;7680999;23;20012;-74
2023/08/24 00:22:40;;;;;;;10.38;2.60;;;33.50;36.20;;;;;;7680663;23;20008;-74
2023/08/24 00:25:41;;;;;;;5.80;2.55;;;33.40;36.20;;;;;;7681225;23;20012;-75
2023/08/24 00:28:42;;;;;;;10.30;2.88;;;33.40;36.20;;;;;;7708072;23;20012;-76
2023/08/24 00:31:43;;;;;;;9.85;2.90;;;33.40;36.30;;;;;;7707440;23;20005;-74
2023/08/24 00:34:45;;;;;;;8.73;2.63;;;33.40;36.40;;;;;;7656145;23;20118;-76
2023/08/24 00:37:47;;;;;;;5.05;2.17;;;33.30;36.70;;;;;;7681013;23;20034;-76
2023/08/24 00:40:52;;;;;;;16.73;2.65;;;33.30;37.10;;;;;;7681114;23;20008;-76
2023/08/24 00:43:53;;;;;;;6.22;2.15;;;33.30;37.40;;;;;;7707361;23;20278;-76
2023/08/24 00:46:54;;;;;;;4.28;2.50;;;33.10;37.50;;;;;;7655609;23;20013;-76
2023/08/24 00:49:55;;;;;;;10.23;2.50;;;33.10;38.00;;;;;;7708193;23;20075;-75
2023/08/24 00:52:56;;;;;;;5.13;2.08;;;33.00;38.30;;;;;;7680871;23;20320;-74
2023/08/24 00:55:58;;;;;;;8.60;2.88;;;33.00;38.80;;;;;;7708090;23;20073;-75
2023/08/24 00:59:00;;;;;;;7.50;2.47;;;32.80;39.00;;;;;;7680932;23;20013;-75
2023/08/24 01:02:02;;;;;;;7.35;2.30;;;32.80;39.30;;;;;;7707489;23;20013;-76
2023/08/24 01:05:05;;;;;;;6.03;2.78;;;32.70;39.50;;;;;;7707194;23;20032;-75
2023/08/24 01:08:06;;;;;;;7.38;2.17;;;32.60;39.50;;;;;;7708115;23;20434;-74
2023/08/24 01:11:37;;;;;;;7.90;2.70;;;32.60;39.80;;;;;;7655887;23;20086;-76
2023/08/24 01:14:46;;;;;;;6.40;2.40;;;32.40;39.80;;;;;;7680445;23;20091;-75
2023/08/24 01:17:49;;;;;;;15.05;3.13;;;32.40;40.50;;;;;;7680500;23;20024;-75
2023/08/24 01:20:51;;;;;;;9.77;2.75;;;32.40;40.00;;;;;;7679910;23;20053;-74
2023/08/24 01:24:12;;;;;;;12.55;2.33;;;32.30;40.10;;;;;;7680245;23;20358;-76
2023/08/24 01:27:14;;;;;;;8.98;2.47;;;32.30;40.30;;;;;;7680356;23;20345;-74
2023/08/24 01:30:18;;;;;;;6.53;2.70;;;32.20;40.30;;;;;;7680491;23;20080;-76
2023/08/24 01:33:18;;;;;;;12.82;2.60;;;32.20;40.40;;;;;;7707093;23;20001;-76
2023/08/24 01:36:21;;;;;;;7.07;2.75;;;32.10;40.40;;;;;;7679841;23;20016;-75
2023/08/24 01:39:30;;;;;;;5.90;2.45;;;32.10;40.40;;;;;;7679766;23;20108;-75
2023/08/24 01:42:33;;;;;;;12.68;2.67;;;32.10;40.30;;;;;;7679543;23;20079;-76
2023/08/24 01:45:34;;;;;;;5.95;2.38;;;32.10;40.20;;;;;;7679684;23;20050;-75
2023/08/24 01:48:36;;;;;;;9.05;2.30;;;32.10;40.20;;;;;;7679757;23;20032;-76
2023/08/24 01:51:37;;;;;;;5.88;2.47;;;32.10;40.30;;;;;;7679296;23;20405;-76
2023/08/24 01:54:39;;;;;;;8.65;3.15;;;32.10;40.40;;;;;;7706724;23;20008;-75
2023/08/24 01:57:40;;;;;;;7.80;2.55;;;32.00;40.60;;;;;;7679581;23;20091;-75
2023/08/24 02:00:41;;;;;;;12.98;2.55;;;32.00;40.80;;;;;;7680028;23;20017;-75
2023/08/24 02:03:43;;;;;;;5.15;3.03;;;31.90;40.70;;;;;;7680379;23;20019;-75
2023/08/24 02:06:45;;;;;;;8.38;2.45;;;31.90;40.90;;;;;;7680048;23;20004;-76
2023/08/24 02:09:46;;;;;;;6.95;2.22;;;31.80;41.00;;;;;;7706891;23;20016;-75
2023/08/24 02:12:47;;;;;;;12.68;2.85;;;31.80;41.20;;;;;;7655506;23;20441;-75
2023/08/24 02:15:48;;;;;;;11.07;2.88;;;31.80;41.40;;;;;;7680508;23;20019;-75
2023/08/24 02:18:49;;;;;;;6.68;2.67;;;31.70;41.40;;;;;;7707408;23;20087;-75
2023/08/24 02:21:50;;;;;;;9.32;2.70;;;31.70;41.30;;;;;;7680049;23;20013;-75
2023/08/24 02:24:51;;;;;;;6.10;2.65;;;31.70;41.50;;;;;;7680170;23;20020;-76
2023/08/24 02:27:52;;;;;;;12.27;2.97;;;31.70;41.60;;;;;;7679762;23;20015;-76
2023/08/24 02:30:54;;;;;;;6.53;2.47;;;31.60;41.70;;;;;;7679766;23;20391;-75
2023/08/24 02:33:55;;;;;;;7.43;2.55;;;31.60;42.30;;;;;;7679667;23;20039;-76
2023/08/24 02:36:57;;;;;;;7.20;2.50;;;31.50;41.60;;;;;;7654643;23;20087;-74
2023/08/24 02:39:58;;;;;;;6.28;2.35;;;31.50;41.60;;;;;;7680060;23;20059;-76
2023/08/24 02:42:59;;;;;;;8.27;2.80;;;31.50;41.40;;;;;;7655511;23;20463;-75
2023/08/24 02:46:05;;;;;;;12.65;2.70;;;31.60;41.30;;;;;;7679899;23;20012;-75
2023/08/24 02:49:07;;;;;;;6.63;2.65;;;31.60;41.30;;;;;;7656016;23;20119;-75
2023/08/24 02:52:08;;;;;;;8.98;2.72;;;31.60;41.20;;;;;;7706693;23;20104;-76
2023/08/24 02:55:10;;;;;;;18.85;2.83;;;31.60;41.20;;;;;;7707651;23;20009;-75
2023/08/24 02:58:11;;;;;;;7.32;2.80;;;31.60;41.10;;;;;;7657080;23;20083;-75
2023/08/24 03:01:12;;;;;;;12.73;3.08;;;31.60;41.00;;;;;;7711617;23;20078;-76
2023/08/24 03:04:13;;;;;;;4.40;2.30;;;31.60;40.90;;;;;;7658847;23;20019;-75
2023/08/24 03:07:14;;;;;;;5.60;2.80;;;31.60;40.70;;;;;;7683873;23;20090;-76
2023/08/24 03:10:15;;;;;;;5.43;2.67;;;31.60;40.70;;;;;;7658095;23;20345;-75
2023/08/24 03:13:16;;;;;;;8.25;2.58;;;31.60;40.60;;;;;;7682799;23;20005;-75
2023/08/24 03:16:17;;;;;;;9.77;3.03;;;31.60;40.40;;;;;;7682293;23;20023;-74
2023/08/24 03:19:18;;;;;;;4.18;2.70;;;31.60;40.30;;;;;;7709251;23;20012;-75
2023/08/24 03:22:19;;;;;;;5.93;2.90;;;31.60;39.90;;;;;;7682091;23;20014;-75
2023/08/24 03:25:21;;;;;;;10.52;2.85;;;31.60;39.80;;;;;;7708251;23;20023;-74
2023/08/24 03:28:21;;;;;;;6.15;2.45;;;31.60;39.80;;;;;;7708689;23;20152;-75
2023/08/24 03:31:23;;;;;;;10.38;3.17;;;31.60;39.80;;;;;;7681947;23;20008;-76
2023/08/24 03:34:24;;;;;;;7.30;2.88;;;31.60;39.70;;;;;;7656580;23;20015;-75
2023/08/24 03:37:25;;;;;;;7.35;2.85;;;31.60;39.80;;;;;;7681751;23;20387;-76
2023/08/24 03:40:26;;;;;;;8.30;2.63;;;31.60;40.20;;;;;;7681798;23;20020;-75
2023/08/24 03:43:28;;;;;;;9.50;2.85;;;31.60;40.50;;;;;;7681748;23;20096;-76
2023/08/24 03:46:29;;;;;;;8.77;2.55;;;31.50;40.80;;;;;;7681578;23;20013;-76
2023/08/24 03:49:30;;;;;;;6.75;2.17;;;31.50;41.80;;;;;;7681377;23;20044;-75
2023/08/24 03:52:31;;;;;;;4.70;2.78;;;31.40;41.60;;;;;;7656837;23;20812;-75
2023/08/24 03:55:33;;;;;;;7.60;2.90;;;31.30;41.80;;;;;;7657427;23;20091;-73
2023/08/24 03:58:33;;;;;;;5.00;2.63;;;31.20;42.10;;;;;;7681931;23;20040;-75
2023/08/24 04:01:35;;;;;;;9.88;3.10;;;31.10;42.40;;;;;;7681592;23;20008;-75
2023/08/24 04:04:36;;;;;;;4.32;2.42;;;31.10;42.80;;;;;;7681087;23;20016;-74
2023/08/24 04:07:38;;;;;;;7.15;3.17;;;30.90;42.80;;;;;;7681675;23;20015;-75
2023/08/24 04:10:39;;;;;;;10.45;2.60;;;30.80;43.00;;;;;;7681009;23;20013;-77
2023/08/24 04:13:39;;;;;;;5.93;2.60;;;30.80;43.50;;;;;;7681500;23;20081;-76
2023/08/24 04:16:41;;;;;;;7.75;2.55;;;30.70;43.60;;;;;;7681652;23;20016;-77
2023/08/24 04:19:42;;;;;;;5.13;3.05;;;30.60;43.80;;;;;;7708716;23;20005;-74
2023/08/24 04:22:43;;;;;;;8.38;2.75;;;30.50;44.00;;;;;;7681723;23;20016;-76
2023/08/24 04:25:44;;;;;;;8.38;3.00;;;30.50;44.30;;;;;;7681892;23;20015;-75
2023/08/24 04:28:45;;;;;;;6.53;2.30;;;30.40;44.30;;;;;;7656057;23;20024;-74
2023/08/24 04:31:46;;;;;;;11.10;2.53;;;30.40;44.40;;;;;;7680805;23;20013;-76
2023/08/24 04:34:47;;;;;;;14.05;2.70;;;30.40;44.50;;;;;;7707717;23;20019;-75
2023/08/24 04:37:47;;;;;;;5.88;2.65;;;30.40;44.70;;;;;;7708168;23;20028;-75
2023/08/24 04:40:50;;;;;;;8.52;2.90;;;30.30;44.80;;;;;;7680880;23;20083;-74
2023/08/24 04:43:51;;;;;;;6.05;2.90;;;30.30;45.00;;;;;;7707894;23;20063;-75
2023/08/24 04:46:52;;;;;;;8.70;2.88;;;30.20;45.00;;;;;;7681225;23;20008;-75
2023/08/24 04:49:53;;;;;;;11.88;3.00;;;30.20;45.00;;;;;;7656407;23;20319;-74
2023/08/24 04:52:54;;;;;;;8.48;2.95;;;30.20;45.00;;;;;;7708333;23;20001;-75
2023/08/24 04:55:55;;;;;;;7.43;2.90;;;30.10;44.90;;;;;;7708046;23;20349;-76
2023/08/24 04:58:57;;;;;;;10.57;3.63;;;30.10;44.90;;;;;;7708313;23;20009;-75
2023/08/24 05:01:58;;;;;;;6.55;3.03;;;30.10;44.90;;;;;;7680798;23;20012;-74
2023/08/24 05:04:59;;;;;;;9.10;3.00;;;30.10;44.90;;;;;;7708001;23;20050;-76
2023/08/24 05:08:02;;;;;;;7.40;3.00;;;30.10;44.90;;;;;;7708144;23;20385;-75
2023/08/24 05:11:14;;;;;;;15.35;3.55;;;30.10;44.80;;;;;;7680963;23;20042;-74
2023/08/24 05:14:14;;;;;;;7.47;3.22;;;30.10;44.80;;;;;;7681175;23;20015;-74
2023/08/24 05:17:15;;;;;;;13.70;3.17;;;30.10;44.60;;;;;;7707611;23;20017;-76
2023/08/24 05:20:16;;;;;;;14.68;3.00;;;30.10;44.60;;;;;;7680780;23;20115;-75
2023/08/24 05:23:17;;;;;;;12.20;3.75;;;30.20;44.50;;;;;;7680060;23;20016;-76
2023/08/24 05:26:22;;;;;;;9.02;2.92;;;30.20;44.50;;;;;;7680284;23;20067;-76
2023/08/24 05:29:23;;;;;;;10.13;3.03;;;30.20;44.50;;;;;;7656215;23;20012;-75
2023/08/24 05:32:24;;;;;;;9.70;3.17;;;30.20;44.70;;;;;;7707717;23;20074;-76
2023/08/24 05:35:27;;;;;;;12.98;3.13;;;30.10;44.60;;;;;;7708273;23;20005;-75
2023/08/24 05:38:28;;;;;;;10.68;3.25;;;30.10;44.60;;;;;;7708001;23;20020;-74
2023/08/24 05:41:29;;;;;;;12.77;2.75;;;30.20;44.60;;;;;;7680341;23;20086;-75
2023/08/24 05:44:30;;;;;;;6.82;2.70;;;30.20;44.50;;;;;;7680352;23;20302;-75
2023/08/24 05:47:30;;;;;;;7.50;3.28;;;30.30;44.70;;;;;;7679854;23;20009;-75
2023/08/24 05:50:31;;;;;;;9.98;3.53;;;30.30;44.70;;;;;;7679881;23;20632;-75
2023/08/24 05:53:32;;;;;;;7.82;3.08;;;30.30;44.60;;;;;;7706748;23;20150;-76
2023/08/24 05:56:34;;;;;;;7.85;3.13;;;30.30;44.50;;;;;;7707705;23;20103;-75
2023/08/24 05:59:35;;;;;;;9.57;2.80;;;30.30;44.50;;;;;;7706992;23;20076;-75
2023/08/24 06:02:36;;;;;;;11.13;3.15;;;30.40;44.40;;;;;;7707219;23;20016;-75
2023/08/24 06:05:38;;;;;;;6.90;2.72;;;30.40;44.30;;;;;;7680132;23;20024;-75
2023/08/24 06:08:39;;;;;;;21.90;3.65;;;30.40;44.10;;;;;;7679831;23;20004;-76
2023/08/24 06:11:40;;;;;;;10.10;3.22;;;30.50;43.80;;;;;;7708220;23;20075;-76
2023/08/24 06:14:41;;;;;;;15.02;3.45;;;30.60;43.20;;;;;;7683529;23;20013;-75
2023/08/24 06:17:42;;;;;;;8.52;3.13;;;30.70;43.00;;;;;;7661237;23;20381;-75
2023/08/24 06:20:43;;;;;;;7.82;2.65;;;30.80;42.30;;;;;;7658091;23;20333;-76
2023/08/24 06:23:44;;;;;;;9.50;3.13;;;30.80;42.70;;;;;;7707784;23;20009;-76
2023/08/24 06:26:45;;;;;;;3.45;2.58;;;30.90;42.50;;;;;;7706720;23;20039;-75
2023/08/24 06:29:46;;;;;;;6.70;2.90;;;31.00;42.30;;;;;;7679303;23;20067;-76
2023/08/24 06:32:47;;;;;;;17.58;3.33;;;31.00;42.40;;;;;;7705526;23;20096;-75
2023/08/24 06:35:48;;;;;;;11.70;4.38;;;31.00;42.70;;;;;;7706143;23;20433;-76
2023/08/24 06:38:49;;;;;;;6.90;3.10;;;31.10;42.60;;;;;;7707029;23;20082;-76
2023/08/24 06:41:51;;;;;;;17.33;3.50;;;31.10;42.70;;;;;;7682961;23;20008;-76
2023/08/24 06:44:57;;;;;;;12.30;3.17;;;31.10;42.70;;;;;;7659525;23;20008;-75
2023/08/24 06:47:58;;;;;;;22.33;3.05;;;31.20;42.90;;;;;;7682844;23;20390;-75
2023/08/24 06:50:59;;;;;;;12.40;3.63;;;31.20;43.00;;;;;;7709255;23;20096;-75
2023/08/24 06:54:00;;;;;;;8.40;3.15;;;31.20;43.10;;;;;;7681446;23;20100;-75
2023/08/24 06:57:01;;;;;;;13.43;3.22;;;31.30;42.90;;;;;;7681942;23;20017;-76
2023/08/24 07:00:06;;;;;;;12.57;3.58;;;31.20;42.60;;;;;;7708551;23;20004;-75
2023/08/24 07:03:07;;;;;;;13.07;3.20;;;31.20;42.40;;;;;;7708923;23;20074;-76
2023/08/24 07:06:08;;;;;;;6.90;2.70;;;31.30;42.20;;;;;;7708584;23;20049;-76
2023/08/24 07:09:09;;;;;;;5.95;3.03;;;31.30;41.70;;;;;;7708463;23;20007;-76
2023/08/24 07:12:10;;;;;;;7.95;3.30;;;31.50;41.50;;;;;;7708761;23;20076;-76
2023/08/24 07:15:12;;;;;;;5.82;3.20;;;31.50;41.50;;;;;;7708448;23;20098;-75
2023/08/24 07:18:13;;;;;;;7.75;3.63;;;31.50;41.50;;;;;;7708420;23;20092;-75
2023/08/24 07:21:14;;;;;;;11.23;3.13;;;31.60;41.30;;;;;;7657010;23;20012;-76
2023/08/24 07:24:18;;;;;;;16.08;3.00;;;31.80;41.10;;;;;;7681395;23;20035;-75
2023/08/24 07:27:20;;;;;;;13.52;2.97;;;31.80;40.80;;;;;;7708398;23;20004;-76
2023/08/24 07:30:21;;;;;;;13.57;3.35;;;32.00;40.60;;;;;;7708211;23;20009;-76
2023/08/24 07:33:22;;;;;;;10.15;3.20;;;32.10;40.30;;;;;;7707864;23;20000;-76
2023/08/24 07:36:23;;;;;;;11.52;3.70;;;32.20;39.90;;;;;;7707861;23;20088;-76
2023/08/24 07:39:24;;;;;;;10.75;3.28;;;32.30;39.50;;;;;;7681428;23;20009;-76
2023/08/24 07:42:25;;;;;;;6.82;3.45;;;32.40;39.30;;;;;;7680569;23;20012;-76
2023/08/24 07:45:26;;;;;;;20.30;4.22;;;32.40;39.10;;;;;;7680743;23;20153;-74
2023/08/24 07:48:27;;;;;;;9.43;3.88;;;32.70;38.20;;;;;;7707737;23;20013;-75
2023/08/24 07:51:28;;;;;;;12.90;3.65;;;32.60;38.60;;;;;;7706782;23;20448;-74
2023/08/24 07:54:29;;;;;;;12.90;3.65;;;32.80;38.40;;;;;;7681464;23;20081;-75
2023/08/24 07:57:31;;;;;;;6.75;3.75;;;32.90;38.40;;;;;;7708555;23;20635;-75
2023/08/24 08:00:32;;;;;;;5.95;3.75;;;33.00;38.40;;;;;;7707004;23;20023;-77
2023/08/24 08:03:35;;;;;;;7.78;3.47;;;33.10;38.20;;;;;;7707537;23;20032;-75
2023/08/24 08:06:36;;;;;;;10.10;3.80;;;33.20;38.20;;;;;;7680712;23;20012;-77
2023/08/24 08:09:37;;;;;;;7.10;3.28;;;33.30;38.00;;;;;;7680344;23;20008;-75
2023/08/24 08:12:38;;;;;;;9.13;4.03;;;33.30;37.80;;;;;;7680362;23;20019;-75
2023/08/24 08:15:39;;;;;;;7.57;3.33;;;33.30;37.60;;;;;;7708138;23;20333;-75
2023/08/24 08:18:40;;;;;;;11.73;3.35;;;33.40;37.30;;;;;;7681223;23;20075;-76
2023/08/24 08:21:41;;;;;;;7.82;3.45;;;33.60;37.20;;;;;;7708309;23;20013;-77
2023/08/24 08:24:42;;;;;;;6.45;3.45;;;33.80;37.00;;;;;;7681131;23;20019;-75
2023/08/24 08:27:43;;;;;;;24.95;3.30;;;33.90;36.80;;;;;;7707834;23;20032;-75
2023/08/24 08:30:47;;;;;;;6.65;2.88;;;34.10;36.30;;;;;;7707916;23;20004;-76
2023/08/24 08:33:48;;;;;;;8.18;3.33;;;34.30;36.00;;;;;;7681443;23;20067;-75
2023/08/24 08:36:49;;;;;;;10.48;3.55;;;34.40;35.80;;;;;;7708185;23;20391;-77
2023/08/24 08:39:50;;;;;;;10.10;3.33;;;34.40;35.60;;;;;;7707759;23;20055;-75
2023/08/24 08:42:51;;;;;;;11.82;3.70;;;34.40;35.50;;;;;;7708077;23;20008;-76
2023/08/24 08:45:55;;;;;;;18.83;4.95;;;34.50;35.30;;;;;;7708256;23;20031;-75
2023/08/24 08:48:56;;;;;;;16.10;4.68;;;34.60;35.40;;;;;;7708362;23;20020;-76
2023/08/24 08:51:57;;;;;;;11.40;3.13;;;34.70;35.10;;;;;;7707822;23;20019;-76
2023/08/24 08:54:58;;;;;;;21.48;3.40;;;34.80;34.40;;;;;;7708302;23;20451;-76
2023/08/24 08:58:03;;;;;;;9.55;3.08;;;35.00;33.90;;;;;;7708092;23;20027;-75
2023/08/24 09:01:05;;;;;;;12.13;4.65;;;35.00;33.50;;;;;;7680597;23;20032;-75
2023/08/24 09:04:07;;;;;;;17.77;3.50;;;35.10;33.40;;;;;;7708016;23;20012;-75
2023/08/24 09:07:12;;;;;;;6.00;3.72;;;35.20;33.30;;;;;;7680866;23;20014;-74
2023/08/24 09:10:13;;;;;;;6.40;2.95;;;35.30;33.10;;;;;;7681115;23;20005;-77
2023/08/24 09:13:14;;;;;;;10.85;3.15;;;35.50;33.00;;;;;;7683582;23;20053;-75
2023/08/24 09:16:17;;;;;;;8.10;3.30;;;35.50;32.90;;;;;;7709439;23;20225;-75
2023/08/24 09:19:18;;;;;;;8.98;3.22;;;35.60;33.00;;;;;;7708599;23;20008;-75
2023/08/24 09:22:19;;;;;;;9.23;3.40;;;35.70;33.00;;;;;;7680362;23;20012;-75
2023/08/24 09:25:20;;;;;;;9.30;3.28;;;35.90;33.20;;;;;;7707287;23;20028;-75
2023/08/24 09:28:24;;;;;;;10.07;3.72;;;35.90;33.20;;;;;;7680220;23;20391;-76
2023/08/24 09:31:37;;;;;;;13.65;3.67;;;36.00;33.10;;;;;;7680222;23;20015;-76
2023/08/24 09:34:37;;;;;;;13.77;4.30;;;36.00;32.90;;;;;;7679751;23;20019;-75
2023/08/24 09:37:38;;;;;;;13.00;2.83;;;36.10;32.90;;;;;;7706304;23;20338;-74
2023/08/24 09:40:47;;;;;;;14.07;3.95;;;36.20;32.70;;;;;;7706333;23;20027;-76
2023/08/24 09:43:48;;;;;;;15.38;3.10;;;36.30;32.70;;;;;;7679335;23;20091;-75
2023/08/24 09:46:50;;;;;;;15.00;3.17;;;36.50;32.30;;;;;;7679301;23;20448;-75
2023/08/24 09:49:52;;;;;;;12.23;3.35;;;36.60;31.80;;;;;;7706073;23;20011;-75
2023/08/24 09:52:57;;;;;;;11.68;3.70;;;36.80;31.60;;;;;;7706660;23;20055;-74
2023/08/24 09:56:01;;;;;;;17.65;4.88;;;36.80;31.40;;;;;;7707050;23;20049;-74
2023/08/24 09:59:07;;;;;;;11.50;3.38;;;37.00;30.80;;;;;;7680079;23;20378;-75
2023/08/24 10:02:23;;;;;;;14.40;3.15;;;37.10;30.40;;;;;;7679616;23;20105;-76
2023/08/24 10:05:25;;;;;;;7.55;2.90;;;37.20;30.10;;;;;;7705893;23;20178;-76
2023/08/24 10:08:29;;;;;;;11.48;4.60;;;37.30;30.00;;;;;;7705986;23;20016;-76
2023/08/24 10:11:33;;;;;;;8.13;2.92;;;37.40;29.90;;;;;;7705531;23;20374;-76
2023/08/24 10:14:40;;;;;;;7.90;3.40;;;37.50;29.80;;;;;;7705962;23;20020;-75
2023/08/24 10:17:42;;;;;;;10.07;3.10;;;37.60;29.70;;;;;;7706416;23;20005;-77
2023/08/24 10:20:43;;;;;;;11.57;3.33;;;37.70;29.40;;;;;;7654773;23;20833;-75
2023/08/24 10:23:46;;;;;;;8.98;2.53;;;37.70;29.30;;;;;;7706053;23;20102;-75
2023/08/24 10:26:48;;;;;;;10.25;3.45;;;37.80;29.10;;;;;;7706252;23;20013;-76
2023/08/24 10:29:49;;;;;;;7.50;3.78;;;37.90;29.00;;;;;;7706971;23;20080;-74
2023/08/24 10:32:53;;;;;;;13.82;3.35;;;38.00;28.80;;;;;;7679322;23;20101;-75
2023/08/24 10:35:54;;;;;;;5.97;3.05;;;38.10;28.80;;;;;;7654219;23;20008;-76
2023/08/24 10:39:05;;;;;;;12.65;3.15;;;38.20;28.70;;;;;;7679068;23;20070;-77
2023/08/24 10:42:10;;;;;;;6.10;3.15;;;38.20;28.40;;;;;;7679114;23;20017;-75
2023/08/24 10:45:17;;;;;;;7.70;3.30;;;38.30;28.40;;;;;;7706432;23;20005;-74
2023/08/24 10:48:18;;;;;;;14.93;3.43;;;38.40;28.20;;;;;;7679808;23;20413;-76
2023/08/24 10:51:22;;;;;;;8.68;2.92;;;38.50;28.10;;;;;;7706878;23;20005;-75
2023/08/24 10:54:31;;;;;;;7.03;3.13;;;38.60;27.80;;;;;;7679602;23;20083;-76
2023/08/24 10:57:41;;;;;;;8.68;3.03;;;38.80;27.60;;;;;;7680539;23;20047;-76
2023/08/24 11:00:49;;;;;;;14.18;3.58;;;39.10;27.40;;;;;;7655865;23;20040;-75
2023/08/24 11:03:54;;;;;;;4.85;2.97;;;39.40;27.10;;;;;;7679710;23;20009;-75
2023/08/24 11:06:59;;;;;;;7.68;2.90;;;39.70;26.90;;;;;;7680351;23;20004;-76
2023/08/24 11:10:10;;;;;;;8.60;2.90;;;40.00;26.60;;;;;;7707594;23;20089;-75
2023/08/24 11:13:15;;;;;;;7.45;2.67;;;40.30;26.30;;;;;;7706972;23;20674;-74
2023/08/24 11:16:39;;;;;;;9.93;2.95;;;40.50;26.00;;;;;;7680566;23;20443;-76
2023/08/24 11:19:50;;;;;;;8.48;2.78;;;40.90;25.80;;;;;;7680342;23;20374;-75
2023/08/24 11:22:56;;;;;;;8.57;2.85;;;41.30;25.70;;;;;;7707337;23;20031;-76
2023/08/24 11:26:00;;;;;;;8.05;2.95;;;41.70;25.30;;;;;;7708714;23;20016;-76
2023/08/24 11:29:05;;;;;;;7.57;2.78;;;42.20;24.80;;;;;;7710046;23;20005;-75
2023/08/24 11:32:06;;;;;;;8.52;2.80;;;42.50;24.30;;;;;;7709599;23;20079;-74
2023/08/24 11:35:12;;;;;;;9.38;3.10;;;42.70;24.00;;;;;;7657471;23;20012;-74
2023/08/24 11:38:14;;;;;;;17.23;3.25;;;42.90;23.80;;;;;;7709197;23;20008;-74
2023/08/24 11:41:16;;;;;;;6.13;2.42;;;43.20;23.70;;;;;;7709253;23;20012;-75
2023/08/24 11:44:17;;;;;;;5.65;2.50;;;43.50;23.60;;;;;;7681818;23;20040;-75
2023/08/24 11:47:23;;;;;;;5.95;2.40;;;43.80;23.30;;;;;;7708464;23;20091;-76
2023/08/24 11:50:24;;;;;;;5.22;2.70;;;44.10;22.80;;;;;;7708303;23;20035;-75
2023/08/24 11:53:26;;;;;;;6.28;3.00;;;44.40;22.30;;;;;;7682028;23;20009;-76
2023/08/24 11:56:28;;;;;;;5.03;2.40;;;44.60;22.00;;;;;;7708551;23;20055;-76
2023/08/24 11:59:30;;;;;;;9.23;2.42;;;44.70;21.70;;;;;;7681742;23;20012;-76
2023/08/24 12:02:34;;;;;;;10.88;2.85;;;44.80;21.40;;;;;;7680675;23;20009;-74
2023/08/24 12:05:35;;;;;;;8.60;2.40;;;44.90;21.50;;;;;;7681705;23;20015;-75
2023/08/24 12:08:44;;;;;;;8.10;2.42;;;44.90;21.10;;;;;;7708769;23;20004;-75
2023/08/24 12:11:45;;;;;;;7.38;2.35;;;45.10;21.00;;;;;;7708559;23;20060;-75
2023/08/24 12:14:47;;;;;;;10.80;2.90;;;45.40;20.70;;;;;;7682482;23;20087;-75
2023/08/24 12:17:48;;;;;;;6.60;3.00;;;45.60;20.50;;;;;;7656384;23;20020;-75
2023/08/24 12:20:50;;;;;;;13.23;2.88;;;45.80;20.30;;;;;;7708315;23;20084;-75
2023/08/24 12:24:05;;;;;;;6.97;2.50;;;45.80;20.10;;;;;;7681598;23;20080;-75
2023/08/24 12:27:06;;;;;;;4.32;2.35;;;45.80;20.10;;;;;;7681698;23;20032;-74
2023/08/24 12:30:07;;;;;;;10.32;2.38;;;46.10;20.10;;;;;;7682178;23;20374;-75
2023/08/24 12:33:08;;;;;;;8.75;2.58;;;46.70;19.50;;;;;;7682269;23;20028;-75
2023/08/24 12:36:09;;;;;;;10.18;2.60;;;47.10;19.00;;;;;;7656682;23;20441;-75
2023/08/24 12:39:13;;;;;;;17.00;2.72;;;47.40;18.60;;;;;;7707974;23;20063;-75
2023/08/24 12:42:14;;;;;;;10.00;2.40;;;47.60;18.30;;;;;;7708041;23;20024;-75
2023/08/24 12:45:15;;;;;;;6.60;2.40;;;47.90;18.20;;;;;;7707658;23;20070;-74
2023/08/24 12:48:16;;;;;;;7.25;2.35;;;48.10;18.00;;;;;;7708147;23;20008;-75
2023/08/24 12:51:17;;;;;;;7.25;2.40;;;48.30;17.80;;;;;;7707612;23;20422;-77
2023/08/24 12:54:18;;;;;;;6.10;2.58;;;48.50;17.50;;;;;;7680989;23;20012;-76
2023/08/24 12:57:19;;;;;;;8.82;2.25;;;48.50;17.40;;;;;;7707981;23;20011;-75
2023/08/24 13:00:21;;;;;;;5.18;2.25;;;48.00;17.60;;;;;;7707739;23;20077;-75
2023/08/24 13:03:22;;;;;;;9.68;2.40;;;47.30;18.00;;;;;;7707394;23;20005;-75
2023/08/24 13:06:24;;;;;;;6.50;2.60;;;46.70;18.50;;;;;;7707380;23;20035;-76
2023/08/24 13:09:25;;;;;;;6.10;2.30;;;46.70;18.40;;;;;;7707111;23;20011;-75
2023/08/24 13:12:26;;;;;;;7.20;3.15;;;47.50;18.50;;;;;;7706844;23;20005;-76
2023/08/24 13:15:27;;;;;;;15.52;2.80;;;48.50;17.40;;;;;;7707216;23;20378;-73
2023/08/24 13:18:28;;;;;;;4.47;1.95;;;49.40;16.60;;;;;;7707346;23;20008;-76
2023/08/24 13:21:29;;;;;;;6.47;2.20;;;50.10;16.30;;;;;;7680449;23;20016;-77
2023/08/24 13:24:31;;;;;;;8.20;2.25;;;50.80;15.90;;;;;;7706738;23;20015;-75
2023/08/24 13:27:32;;;;;;;9.73;2.30;;;51.50;15.50;;;;;;7655608;23;20123;-75
2023/08/24 13:30:33;;;;;;;15.82;2.42;;;52.00;15.30;;;;;;7680853;23;20035;-75
2023/08/24 13:33:33;;;;;;;5.35;2.50;;;52.40;15.00;;;;;;7706825;23;20016;-75
2023/08/24 13:36:34;;;;;;;6.38;2.58;;;52.80;14.70;;;;;;7707161;23;20110;-75
2023/08/24 13:39:35;;;;;;;6.90;2.40;;;53.30;14.40;;;;;;7706905;23;20402;-75
2023/08/24 13:42:36;;;;;;;6.47;2.25;;;53.50;14.10;;;;;;7680400;23;20016;-76
2023/08/24 13:45:37;;;;;;;4.03;2.15;;;53.60;14.00;;;;;;7707117;23;20008;-76
2023/08/24 13:48:38;;;;;;;7.07;2.38;;;53.80;13.70;;;;;;7680119;23;20070;-76
2023/08/24 13:51:39;;;;;;;12.98;2.33;;;53.80;13.70;;;;;;7679803;23;20343;-77
2023/08/24 13:54:41;;;;;;;7.28;2.50;;;54.00;13.70;;;;;;7679672;23;20004;-76
2023/08/24 13:57:43;;;;;;;7.78;2.70;;;54.30;13.60;;;;;;7707156;23;20016;-76
2023/08/24 14:00:44;;;;;;;9.23;2.78;;;54.60;13.40;;;;;;7707257;23;20055;-76
2023/08/24 14:03:46;;;;;;;6.10;2.15;;;54.80;13.30;;;;;;7680249;23;20095;-74
2023/08/24 14:06:48;;;;;;;7.45;2.50;;;54.80;13.20;;;;;;7706914;23;20361;-75
2023/08/24 14:09:49;;;;;;;6.30;2.42;;;54.80;13.10;;;;;;7679768;23;20334;-77
2023/08/24 14:12:50;;;;;;;8.40;2.35;;;54.70;13.00;;;;;;7679968;23;20011;-74
2023/08/24 14:15:51;;;;;;;4.15;1.85;;;54.60;12.90;;;;;;7679457;23;20012;-75
2023/08/24 14:18:53;;;;;;;2.72;2.20;;;54.60;13.00;;;;;;7706282;23;20031;-75
2023/08/24 14:21:54;;;;;;;9.32;2.20;;;53.80;13.20;;;;;;7705984;23;20044;-77
2023/08/24 14:24:54;;;;;;;8.68;2.50;;;52.50;13.80;;;;;;7705883;23;20060;-74
2023/08/24 14:27:55;;;;;;;6.57;2.38;;;51.30;14.50;;;;;;7679304;23;20322;-74
2023/08/24 14:30:56;;;;;;;3.25;1.90;;;50.20;15.10;;;;;;7706165;23;20079;-75
2023/08/24 14:33:57;;;;;;;6.38;2.45;;;49.10;15.50;;;;;;7706029;23;20073;-75
2023/08/24 14:36:58;;;;;;;3.83;2.22;;;48.20;16.00;;;;;;7679897;23;20011;-76
2023/08/24 14:39:59;;;;;;;6.88;2.00;;;47.40;16.40;;;;;;7679918;23;20016;-75
2023/08/24 14:43:00;;;;;;;13.15;2.63;;;46.70;16.80;;;;;;7707777;23;20354;-76
2023/08/24 14:46:01;;;;;;;12.95;2.80;;;46.00;17.00;;;;;;7706387;23;20008;-74
2023/08/24 14:49:03;;;;;;;9.57;3.30;;;45.50;17.30;;;;;;7680990;23;20330;-77
2023/08/24 14:52:04;;;;;;;4.45;2.65;;;45.10;17.70;;;;;;7706424;23;20054;-75
2023/08/24 14:55:10;;;;;;;5.00;2.00;;;44.80;18.00;;;;;;7680342;23;20008;-75
2023/08/24 14:58:11;;;;;;;6.67;2.60;;;44.60;18.20;;;;;;7707352;23;20009;-76
2023/08/24 15:01:12;;;;;;;5.45;2.72;;;44.40;18.30;;;;;;7682122;23;20366;-75
2023/08/24 15:04:13;;;;;;;3.63;2.53;;;44.30;18.30;;;;;;7708915;23;20008;-75
2023/08/24 15:07:14;;;;;;;5.50;2.63;;;44.00;18.20;;;;;;7682681;23;20095;-75
2023/08/24 15:10:15;;;;;;;5.80;2.30;;;43.90;18.20;;;;;;7708858;23;20083;-75
2023/08/24 15:13:16;;;;;;;11.73;2.63;;;43.70;18.40;;;;;;7708674;23;20015;-76
2023/08/24 15:16:17;;;;;;;9.20;2.58;;;43.60;18.50;;;;;;7709197;23;20315;-74
2023/08/24 15:19:18;;;;;;;4.00;2.05;;;43.60;18.70;;;;;;7708762;23;20455;-75
2023/08/24 15:22:19;;;;;;;4.55;2.22;;;43.50;18.70;;;;;;7657155;23;20410;-76
2023/08/24 15:25:21;;;;;;;4.10;2.30;;;43.40;18.90;;;;;;7682289;23;20028;-76
2023/08/24 15:28:23;;;;;;;10.93;2.50;;;43.40;18.70;;;;;;7709120;23;20462;-75
2023/08/24 15:31:24;;;;;;;3.55;2.10;;;43.40;18.70;;;;;;7709054;23;20005;-74
2023/08/24 15:34:24;;;;;;;3.85;2.50;;;43.40;18.70;;;;;;7709101;23;20015;-75
2023/08/24 15:37:25;;;;;;;5.30;2.92;;;43.40;18.80;;;;;;7708855;23;20008;-75
2023/08/24 15:40:34;;;;;;;5.63;2.42;;;43.40;18.90;;;;;;7709300;23;20032;-76
2023/08/24 15:43:35;;;;;;;6.22;2.58;;;43.40;18.90;;;;;;7708869;23;20083;-76